Brookhaven Weather

Current Time: 09:09 Zulu

HWV METARs

Local Time Temperature Dew Point Wind Direction Wind Speed Wind Gust Sky Vis.
9/19/2020 8:56:00 AM 10.6° c 0.0° c 360° 7 kt - CLR 10.0 sm
9/19/2020 7:56:00 AM 11.1° c 0.0° c 360° 11 kt 18kt CLR 10.0 sm
9/19/2020 6:56:00 AM 11.7° c -1.1° c 10° 9 kt - CLR 10.0 sm
9/19/2020 5:56:00 AM 12.2° c 0.0° c 360° 13 kt 21kt CLR 10.0 sm

ISP TAF:

KISP 190850Z 1909/2006 01015G24KT P6SM SKC 
FM191900 01011G18KT P6SM FEW250 
FM192300 03007KT P6SM SCT250
Weather data provided by aviationweather.gov. Pilots must verify weather before flying.